sensor_id;sensor_type;location;lat;lon;timestamp;temperature;humidity
22680;DHT22;11507;44.858;10.374;2023-05-02T00:01:59;12.40;99.90
22680;DHT22;11507;44.858;10.374;2023-05-02T00:04:25;12.40;99.90
22680;DHT22;11507;44.858;10.374;2023-05-02T00:06:52;12.40;99.90
22680;DHT22;11507;44.858;10.374;2023-05-02T00:09:20;12.40;99.90
22680;DHT22;11507;44.858;10.374;2023-05-02T00:14:44;12.40;99.90
22680;DHT22;11507;44.858;10.374;2023-05-02T00:17:19;12.40;99.90
22680;DHT22;11507;44.858;10.374;2023-05-02T00:19:46;12.40;99.90
22680;DHT22;11507;44.858;10.374;2023-05-02T00:22:15;12.40;99.90
22680;DHT22;11507;44.858;10.374;2023-05-02T00:24:40;12.40;99.90
22680;DHT22;11507;44.858;10.374;2023-05-02T00:27:06;12.40;99.90
22680;DHT22;11507;44.858;10.374;2023-05-02T00:29:33;12.50;99.90
22680;DHT22;11507;44.858;10.374;2023-05-02T00:31:59;12.40;99.90
22680;DHT22;11507;44.858;10.374;2023-05-02T00:34:28;12.40;99.90
22680;DHT22;11507;44.858;10.374;2023-05-02T00:36:55;12.40;99.90
22680;DHT22;11507;44.858;10.374;2023-05-02T00:39:21;12.40;99.90
22680;DHT22;11507;44.858;10.374;2023-05-02T00:41:46;12.40;99.90
22680;DHT22;11507;44.858;10.374;2023-05-02T00:44:12;12.40;99.90
22680;DHT22;11507;44.858;10.374;2023-05-02T00:46:38;12.40;99.90
22680;DHT22;11507;44.858;10.374;2023-05-02T00:49:11;12.40;99.90
22680;DHT22;11507;44.858;10.374;2023-05-02T00:51:37;12.50;99.90
22680;DHT22;11507;44.858;10.374;2023-05-02T00:54:04;12.50;99.90
22680;DHT22;11507;44.858;10.374;2023-05-02T00:56:30;12.50;99.90
22680;DHT22;11507;44.858;10.374;2023-05-02T00:58:58;12.50;99.90
22680;DHT22;11507;44.858;10.374;2023-05-02T01:12:00;12.50;99.90
22680;DHT22;11507;44.858;10.374;2023-05-02T01:14:32;12.50;99.90
22680;DHT22;11507;44.858;10.374;2023-05-02T01:17:01;12.50;99.90
22680;DHT22;11507;44.858;10.374;2023-05-02T01:19:31;12.50;99.90
22680;DHT22;11507;44.858;10.374;2023-05-02T01:22:01;12.50;99.90
22680;DHT22;11507;44.858;10.374;2023-05-02T01:24:29;12.50;99.90
22680;DHT22;11507;44.858;10.374;2023-05-02T01:26:59;12.50;99.90
22680;DHT22;11507;44.858;10.374;2023-05-02T01:29:27;12.50;99.90
22680;DHT22;11507;44.858;10.374;2023-05-02T01:31:55;12.50;99.90
22680;DHT22;11507;44.858;10.374;2023-05-02T01:34:23;12.50;99.90
22680;DHT22;11507;44.858;10.374;2023-05-02T01:36:51;12.50;99.90
22680;DHT22;11507;44.858;10.374;2023-05-02T01:39:18;12.50;99.90
22680;DHT22;11507;44.858;10.374;2023-05-02T01:41:45;12.50;99.90
22680;DHT22;11507;44.858;10.374;2023-05-02T01:44:11;12.40;99.90
22680;DHT22;11507;44.858;10.374;2023-05-02T01:46:39;12.50;99.90
22680;DHT22;11507;44.858;10.374;2023-05-02T01:49:09;12.40;99.90
22680;DHT22;11507;44.858;10.374;2023-05-02T01:51:39;12.40;99.90
22680;DHT22;11507;44.858;10.374;2023-05-02T01:54:08;12.40;99.90
22680;DHT22;11507;44.858;10.374;2023-05-02T01:56:37;12.40;99.90
22680;DHT22;11507;44.858;10.374;2023-05-02T01:59:07;12.40;99.90
22680;DHT22;11507;44.858;10.374;2023-05-02T02:01:34;12.40;99.90
22680;DHT22;11507;44.858;10.374;2023-05-02T02:04:00;12.40;99.90
22680;DHT22;11507;44.858;10.374;2023-05-02T02:06:33;12.30;99.90
22680;DHT22;11507;44.858;10.374;2023-05-02T02:08:59;12.30;99.90
22680;DHT22;11507;44.858;10.374;2023-05-02T02:11:33;12.40;99.90
22680;DHT22;11507;44.858;10.374;2023-05-02T02:14:04;12.40;99.90
22680;DHT22;11507;44.858;10.374;2023-05-02T02:16:31;12.40;99.90
22680;DHT22;11507;44.858;10.374;2023-05-02T02:19:00;12.40;99.90
22680;DHT22;11507;44.858;10.374;2023-05-02T02:21:28;12.40;99.90
22680;DHT22;11507;44.858;10.374;2023-05-02T02:23:58;12.40;99.90
22680;DHT22;11507;44.858;10.374;2023-05-02T02:26:27;12.40;99.90
22680;DHT22;11507;44.858;10.374;2023-05-02T02:28:53;12.40;99.90
22680;DHT22;11507;44.858;10.374;2023-05-02T02:31:22;12.40;99.90
22680;DHT22;11507;44.858;10.374;2023-05-02T02:33:50;12.30;99.90
22680;DHT22;11507;44.858;10.374;2023-05-02T02:39:09;12.40;99.90
22680;DHT22;11507;44.858;10.374;2023-05-02T02:41:48;12.30;99.90
22680;DHT22;11507;44.858;10.374;2023-05-02T02:52:14;12.30;99.90
22680;DHT22;11507;44.858;10.374;2023-05-02T03:00:04;12.30;99.90
22680;DHT22;11507;44.858;10.374;2023-05-02T03:02:32;12.30;99.90
22680;DHT22;11507;44.858;10.374;2023-05-02T03:05:00;12.20;99.90
22680;DHT22;11507;44.858;10.374;2023-05-02T03:07:28;12.20;99.90
22680;DHT22;11507;44.858;10.374;2023-05-02T03:09:56;12.30;99.90
22680;DHT22;11507;44.858;10.374;2023-05-02T03:12:23;12.30;99.90
22680;DHT22;11507;44.858;10.374;2023-05-02T03:14:49;12.30;99.90
22680;DHT22;11507;44.858;10.374;2023-05-02T03:17:17;12.20;99.90
22680;DHT22;11507;44.858;10.374;2023-05-02T03:19:47;12.20;99.90
22680;DHT22;11507;44.858;10.374;2023-05-02T03:22:13;12.20;99.90
22680;DHT22;11507;44.858;10.374;2023-05-02T03:24:40;12.20;99.90
22680;DHT22;11507;44.858;10.374;2023-05-02T03:27:07;12.20;99.90
22680;DHT22;11507;44.858;10.374;2023-05-02T03:29:40;12.10;99.90
22680;DHT22;11507;44.858;10.374;2023-05-02T03:32:06;12.10;99.90
22680;DHT22;11507;44.858;10.374;2023-05-02T03:34:34;12.20;99.90
22680;DHT22;11507;44.858;10.374;2023-05-02T03:37:04;12.20;99.90
22680;DHT22;11507;44.858;10.374;2023-05-02T03:39:31;12.20;99.90
22680;DHT22;11507;44.858;10.374;2023-05-02T03:41:57;12.20;99.90
22680;DHT22;11507;44.858;10.374;2023-05-02T03:44:23;12.20;99.90
22680;DHT22;11507;44.858;10.374;2023-05-02T03:46:49;12.20;99.90
22680;DHT22;11507;44.858;10.374;2023-05-02T03:49:15;12.20;99.90
22680;DHT22;11507;44.858;10.374;2023-05-02T03:51:46;12.20;99.90
22680;DHT22;11507;44.858;10.374;2023-05-02T03:54:16;12.20;99.90
22680;DHT22;11507;44.858;10.374;2023-05-02T03:56:43;12.20;99.90
22680;DHT22;11507;44.858;10.374;2023-05-02T03:59:21;12.20;99.90
22680;DHT22;11507;44.858;10.374;2023-05-02T04:01:48;12.20;99.90
22680;DHT22;11507;44.858;10.374;2023-05-02T04:04:23;12.20;99.90
22680;DHT22;11507;44.858;10.374;2023-05-02T04:06:52;12.20;99.90
22680;DHT22;11507;44.858;10.374;2023-05-02T04:09:19;12.20;99.90
22680;DHT22;11507;44.858;10.374;2023-05-02T04:11:58;12.10;99.90
22680;DHT22;11507;44.858;10.374;2023-05-02T04:14:24;12.10;99.90
22680;DHT22;11507;44.858;10.374;2023-05-02T04:16:52;12.10;99.90
22680;DHT22;11507;44.858;10.374;2023-05-02T04:19:26;12.10;99.90
22680;DHT22;11507;44.858;10.374;2023-05-02T04:21:53;12.10;99.90
22680;DHT22;11507;44.858;10.374;2023-05-02T04:24:19;12.10;99.90
22680;DHT22;11507;44.858;10.374;2023-05-02T04:26:46;12.10;99.90
22680;DHT22;11507;44.858;10.374;2023-05-02T04:29:19;12.10;99.90
22680;DHT22;11507;44.858;10.374;2023-05-02T04:31:47;12.10;99.90
22680;DHT22;11507;44.858;10.374;2023-05-02T04:34:14;12.00;99.90
22680;DHT22;11507;44.858;10.374;2023-05-02T04:36:46;12.00;99.90
22680;DHT22;11507;44.858;10.374;2023-05-02T04:39:16;12.00;99.90
22680;DHT22;11507;44.858;10.374;2023-05-02T04:41:52;12.00;99.90
22680;DHT22;11507;44.858;10.374;2023-05-02T04:44:21;12.00;99.90
22680;DHT22;11507;44.858;10.374;2023-05-02T04:46:47;12.00;99.90
22680;DHT22;11507;44.858;10.374;2023-05-02T04:49:14;12.00;99.90
22680;DHT22;11507;44.858;10.374;2023-05-02T04:51:42;12.10;99.90
22680;DHT22;11507;44.858;10.374;2023-05-02T04:56:46;12.00;99.90
22680;DHT22;11507;44.858;10.374;2023-05-02T04:59:14;12.10;99.90
22680;DHT22;11507;44.858;10.374;2023-05-02T05:01:41;12.10;99.90
22680;DHT22;11507;44.858;10.374;2023-05-02T05:04:09;12.10;99.90
22680;DHT22;11507;44.858;10.374;2023-05-02T05:06:35;12.10;99.90
22680;DHT22;11507;44.858;10.374;2023-05-02T05:09:01;12.10;99.90
22680;DHT22;11507;44.858;10.374;2023-05-02T05:11:28;12.10;99.90
22680;DHT22;11507;44.858;10.374;2023-05-02T05:13:54;12.10;99.90
22680;DHT22;11507;44.858;10.374;2023-05-02T05:16:30;12.10;99.90
22680;DHT22;11507;44.858;10.374;2023-05-02T05:18:59;12.10;99.90
22680;DHT22;11507;44.858;10.374;2023-05-02T05:21:27;12.20;99.90
22680;DHT22;11507;44.858;10.374;2023-05-02T05:23:57;12.20;99.90
22680;DHT22;11507;44.858;10.374;2023-05-02T05:26:26;12.10;99.90
22680;DHT22;11507;44.858;10.374;2023-05-02T05:28:54;12.20;99.90
22680;DHT22;11507;44.858;10.374;2023-05-02T05:31:22;12.20;99.90
22680;DHT22;11507;44.858;10.374;2023-05-02T05:33:52;12.20;99.90
22680;DHT22;11507;44.858;10.374;2023-05-02T05:36:21;12.20;99.90
22680;DHT22;11507;44.858;10.374;2023-05-02T05:38:51;12.20;99.90
22680;DHT22;11507;44.858;10.374;2023-05-02T05:41:18;12.20;99.90
22680;DHT22;11507;44.858;10.374;2023-05-02T05:43:49;12.20;99.90
22680;DHT22;11507;44.858;10.374;2023-05-02T05:46:15;12.20;99.90
22680;DHT22;11507;44.858;10.374;2023-05-02T05:48:41;12.20;99.90
22680;DHT22;11507;44.858;10.374;2023-05-02T05:51:09;12.20;99.90
22680;DHT22;11507;44.858;10.374;2023-05-02T05:53:35;12.20;99.90
22680;DHT22;11507;44.858;10.374;2023-05-02T05:56:09;12.20;99.90
22680;DHT22;11507;44.858;10.374;2023-05-02T05:58:36;12.30;99.90
22680;DHT22;11507;44.858;10.374;2023-05-02T06:01:02;12.30;99.90
22680;DHT22;11507;44.858;10.374;2023-05-02T06:03:30;12.30;99.90
22680;DHT22;11507;44.858;10.374;2023-05-02T06:05:57;12.30;99.90
22680;DHT22;11507;44.858;10.374;2023-05-02T06:10:57;12.40;99.90
22680;DHT22;11507;44.858;10.374;2023-05-02T06:13:25;12.40;99.90
22680;DHT22;11507;44.858;10.374;2023-05-02T06:15:53;12.50;99.90
22680;DHT22;11507;44.858;10.374;2023-05-02T06:18:20;12.60;99.90
22680;DHT22;11507;44.858;10.374;2023-05-02T06:20:46;12.60;99.90
22680;DHT22;11507;44.858;10.374;2023-05-02T06:23:11;12.70;99.90
22680;DHT22;11507;44.858;10.374;2023-05-02T06:25:37;12.80;99.90
22680;DHT22;11507;44.858;10.374;2023-05-02T06:28:04;12.80;99.90
22680;DHT22;11507;44.858;10.374;2023-05-02T06:30:30;12.90;99.90
22680;DHT22;11507;44.858;10.374;2023-05-02T06:35:25;12.90;99.90
22680;DHT22;11507;44.858;10.374;2023-05-02T06:37:51;13.00;99.90
22680;DHT22;11507;44.858;10.374;2023-05-02T06:40:17;13.00;99.90
22680;DHT22;11507;44.858;10.374;2023-05-02T06:42:43;13.10;99.90
22680;DHT22;11507;44.858;10.374;2023-05-02T06:45:10;13.10;99.90
22680;DHT22;11507;44.858;10.374;2023-05-02T06:47:36;13.20;99.90
22680;DHT22;11507;44.858;10.374;2023-05-02T06:50:02;13.20;99.90
22680;DHT22;11507;44.858;10.374;2023-05-02T06:52:28;13.30;99.90
22680;DHT22;11507;44.858;10.374;2023-05-02T06:54:54;13.30;99.90
22680;DHT22;11507;44.858;10.374;2023-05-02T06:57:20;13.40;99.90
22680;DHT22;11507;44.858;10.374;2023-05-02T06:59:46;13.40;99.90
22680;DHT22;11507;44.858;10.374;2023-05-02T07:02:12;13.40;99.90
22680;DHT22;11507;44.858;10.374;2023-05-02T07:04:39;13.50;99.90
22680;DHT22;11507;44.858;10.374;2023-05-02T07:07:06;13.50;99.90
22680;DHT22;11507;44.858;10.374;2023-05-02T07:09:36;13.50;99.90
22680;DHT22;11507;44.858;10.374;2023-05-02T07:12:02;13.60;99.90
22680;DHT22;11507;44.858;10.374;2023-05-02T07:14:28;13.80;99.90
22680;DHT22;11507;44.858;10.374;2023-05-02T07:16:54;13.90;99.90
22680;DHT22;11507;44.858;10.374;2023-05-02T07:19:21;14.00;99.90
22680;DHT22;11507;44.858;10.374;2023-05-02T07:21:49;14.20;99.90
22680;DHT22;11507;44.858;10.374;2023-05-02T07:24:16;14.20;99.90
22680;DHT22;11507;44.858;10.374;2023-05-02T07:26:42;14.30;99.90
22680;DHT22;11507;44.858;10.374;2023-05-02T07:29:07;14.40;99.90
22680;DHT22;11507;44.858;10.374;2023-05-02T07:31:36;14.50;99.90
22680;DHT22;11507;44.858;10.374;2023-05-02T07:34:02;14.60;99.90
22680;DHT22;11507;44.858;10.374;2023-05-02T07:36:31;14.70;99.90
22680;DHT22;11507;44.858;10.374;2023-05-02T07:38:57;14.90;99.90
22680;DHT22;11507;44.858;10.374;2023-05-02T07:41:24;15.10;99.90
22680;DHT22;11507;44.858;10.374;2023-05-02T07:43:50;15.10;99.90
22680;DHT22;11507;44.858;10.374;2023-05-02T07:46:16;15.20;99.90
22680;DHT22;11507;44.858;10.374;2023-05-02T07:48:43;15.20;99.90
22680;DHT22;11507;44.858;10.374;2023-05-02T07:51:09;15.20;99.90
22680;DHT22;11507;44.858;10.374;2023-05-02T07:53:35;15.20;99.90
22680;DHT22;11507;44.858;10.374;2023-05-02T07:56:04;15.30;99.90
22680;DHT22;11507;44.858;10.374;2023-05-02T07:58:36;15.50;99.90
22680;DHT22;11507;44.858;10.374;2023-05-02T08:01:02;15.60;99.90
22680;DHT22;11507;44.858;10.374;2023-05-02T08:03:28;15.70;99.90
22680;DHT22;11507;44.858;10.374;2023-05-02T08:05:54;15.90;99.90
22680;DHT22;11507;44.858;10.374;2023-05-02T08:08:26;16.10;99.90
22680;DHT22;11507;44.858;10.374;2023-05-02T08:10:52;16.30;99.90
22680;DHT22;11507;44.858;10.374;2023-05-02T08:13:18;16.40;99.90
22680;DHT22;11507;44.858;10.374;2023-05-02T08:15:44;16.70;99.90
22680;DHT22;11507;44.858;10.374;2023-05-02T08:18:10;17.00;99.90
22680;DHT22;11507;44.858;10.374;2023-05-02T08:20:36;17.20;99.90
22680;DHT22;11507;44.858;10.374;2023-05-02T08:23:03;17.40;99.90
22680;DHT22;11507;44.858;10.374;2023-05-02T08:25:28;17.50;99.90
22680;DHT22;11507;44.858;10.374;2023-05-02T08:27:56;17.70;99.90
22680;DHT22;11507;44.858;10.374;2023-05-02T08:30:22;17.80;99.90
22680;DHT22;11507;44.858;10.374;2023-05-02T08:32:48;17.70;99.90
22680;DHT22;11507;44.858;10.374;2023-05-02T08:35:13;17.70;99.90
22680;DHT22;11507;44.858;10.374;2023-05-02T08:37:39;17.60;99.90
22680;DHT22;11507;44.858;10.374;2023-05-02T08:40:05;17.60;99.90
22680;DHT22;11507;44.858;10.374;2023-05-02T08:42:34;17.50;99.90
22680;DHT22;11507;44.858;10.374;2023-05-02T08:45:00;17.40;99.90
22680;DHT22;11507;44.858;10.374;2023-05-02T08:47:28;17.50;99.90
22680;DHT22;11507;44.858;10.374;2023-05-02T08:49:55;17.50;99.90
22680;DHT22;11507;44.858;10.374;2023-05-02T08:52:21;17.60;99.90
22680;DHT22;11507;44.858;10.374;2023-05-02T08:54:48;17.60;99.90
22680;DHT22;11507;44.858;10.374;2023-05-02T08:57:17;17.60;99.90
22680;DHT22;11507;44.858;10.374;2023-05-02T08:59:43;17.70;99.90
22680;DHT22;11507;44.858;10.374;2023-05-02T09:02:16;17.80;99.90
22680;DHT22;11507;44.858;10.374;2023-05-02T09:04:42;17.80;99.90
22680;DHT22;11507;44.858;10.374;2023-05-02T09:07:09;17.90;99.90
22680;DHT22;11507;44.858;10.374;2023-05-02T09:09:35;17.90;99.90
22680;DHT22;11507;44.858;10.374;2023-05-02T09:12:04;18.00;99.90
22680;DHT22;11507;44.858;10.374;2023-05-02T09:14:29;18.00;99.90
22680;DHT22;11507;44.858;10.374;2023-05-02T09:16:58;18.00;99.90
22680;DHT22;11507;44.858;10.374;2023-05-02T09:19:25;18.00;99.90
22680;DHT22;11507;44.858;10.374;2023-05-02T09:21:51;18.00;99.90
22680;DHT22;11507;44.858;10.374;2023-05-02T09:24:17;17.90;99.90
22680;DHT22;11507;44.858;10.374;2023-05-02T09:29:29;17.60;99.90
22680;DHT22;11507;44.858;10.374;2023-05-02T09:32:03;17.40;99.90
22680;DHT22;11507;44.858;10.374;2023-05-02T09:34:29;17.10;99.90
22680;DHT22;11507;44.858;10.374;2023-05-02T09:36:56;16.90;99.90
22680;DHT22;11507;44.858;10.374;2023-05-02T09:39:23;16.80;99.90
22680;DHT22;11507;44.858;10.374;2023-05-02T09:41:50;16.70;99.90
22680;DHT22;11507;44.858;10.374;2023-05-02T09:44:18;16.60;99.90
22680;DHT22;11507;44.858;10.374;2023-05-02T09:46:47;16.70;99.90
22680;DHT22;11507;44.858;10.374;2023-05-02T09:51:48;16.70;99.90
22680;DHT22;11507;44.858;10.374;2023-05-02T09:54:22;16.70;99.90
22680;DHT22;11507;44.858;10.374;2023-05-02T09:56:58;16.70;99.90
22680;DHT22;11507;44.858;10.374;2023-05-02T09:59:24;16.70;99.90
22680;DHT22;11507;44.858;10.374;2023-05-02T10:01:56;16.70;99.90
22680;DHT22;11507;44.858;10.374;2023-05-02T10:04:22;16.70;99.90
22680;DHT22;11507;44.858;10.374;2023-05-02T10:06:49;16.70;99.90
22680;DHT22;11507;44.858;10.374;2023-05-02T10:09:15;16.70;99.90
22680;DHT22;11507;44.858;10.374;2023-05-02T10:11:44;16.80;99.90
22680;DHT22;11507;44.858;10.374;2023-05-02T10:14:11;16.90;99.90
22680;DHT22;11507;44.858;10.374;2023-05-02T10:16:51;17.00;99.90
22680;DHT22;11507;44.858;10.374;2023-05-02T10:19:22;17.10;99.90
22680;DHT22;11507;44.858;10.374;2023-05-02T10:21:48;17.20;99.90
22680;DHT22;11507;44.858;10.374;2023-05-02T10:24:14;17.20;99.90
22680;DHT22;11507;44.858;10.374;2023-05-02T10:26:41;17.30;99.90
22680;DHT22;11507;44.858;10.374;2023-05-02T10:29:07;17.40;99.90
22680;DHT22;11507;44.858;10.374;2023-05-02T10:31:33;17.50;99.90
22680;DHT22;11507;44.858;10.374;2023-05-02T10:33:59;17.40;99.90
22680;DHT22;11507;44.858;10.374;2023-05-02T10:36:26;17.50;99.90
22680;DHT22;11507;44.858;10.374;2023-05-02T10:38:53;17.50;99.90
22680;DHT22;11507;44.858;10.374;2023-05-02T10:41:20;17.50;99.90
22680;DHT22;11507;44.858;10.374;2023-05-02T10:43:48;17.50;99.90
22680;DHT22;11507;44.858;10.374;2023-05-02T10:46:33;17.50;99.90
22680;DHT22;11507;44.858;10.374;2023-05-02T10:49:00;17.50;99.90
22680;DHT22;11507;44.858;10.374;2023-05-02T10:51:27;17.60;99.90
22680;DHT22;11507;44.858;10.374;2023-05-02T10:59:27;18.10;99.90
22680;DHT22;11507;44.858;10.374;2023-05-02T11:01:52;18.20;99.90
22680;DHT22;11507;44.858;10.374;2023-05-02T11:04:19;18.30;99.90
22680;DHT22;11507;44.858;10.374;2023-05-02T11:09:29;18.60;99.90
22680;DHT22;11507;44.858;10.374;2023-05-02T11:11:55;18.70;99.90
22680;DHT22;11507;44.858;10.374;2023-05-02T11:19:29;18.80;99.90
22680;DHT22;11507;44.858;10.374;2023-05-02T11:24:51;19.10;99.90
22680;DHT22;11507;44.858;10.374;2023-05-02T11:32:24;19.20;99.90
22680;DHT22;11507;44.858;10.374;2023-05-02T11:34:50;19.20;99.90
22680;DHT22;11507;44.858;10.374;2023-05-02T11:37:17;19.40;99.90
22680;DHT22;11507;44.858;10.374;2023-05-02T11:40:05;19.60;99.90
22680;DHT22;11507;44.858;10.374;2023-05-02T11:42:34;19.80;99.90
22680;DHT22;11507;44.858;10.374;2023-05-02T11:45:00;19.70;99.90
22680;DHT22;11507;44.858;10.374;2023-05-02T11:47:26;19.70;99.90
22680;DHT22;11507;44.858;10.374;2023-05-02T11:49:54;19.80;99.90
22680;DHT22;11507;44.858;10.374;2023-05-02T11:52:21;19.90;99.90
22680;DHT22;11507;44.858;10.374;2023-05-02T11:54:47;20.00;99.90
22680;DHT22;11507;44.858;10.374;2023-05-02T11:57:13;20.00;99.90
22680;DHT22;11507;44.858;10.374;2023-05-02T11:59:52;20.00;99.90
22680;DHT22;11507;44.858;10.374;2023-05-02T12:02:18;19.90;99.90
22680;DHT22;11507;44.858;10.374;2023-05-02T12:04:44;19.90;99.90
22680;DHT22;11507;44.858;10.374;2023-05-02T12:07:10;19.80;99.90
22680;DHT22;11507;44.858;10.374;2023-05-02T12:09:48;19.80;99.90
22680;DHT22;11507;44.858;10.374;2023-05-02T12:12:18;19.60;99.90
22680;DHT22;11507;44.858;10.374;2023-05-02T12:14:43;19.30;99.90
22680;DHT22;11507;44.858;10.374;2023-05-02T12:17:09;19.20;99.90
22680;DHT22;11507;44.858;10.374;2023-05-02T12:19:39;19.10;99.90
22680;DHT22;11507;44.858;10.374;2023-05-02T12:22:05;19.00;99.90
22680;DHT22;11507;44.858;10.374;2023-05-02T12:24:32;18.90;99.90
22680;DHT22;11507;44.858;10.374;2023-05-02T12:27:08;18.70;99.90
22680;DHT22;11507;44.858;10.374;2023-05-02T12:29:37;18.80;99.90
22680;DHT22;11507;44.858;10.374;2023-05-02T12:32:03;18.90;99.90
22680;DHT22;11507;44.858;10.374;2023-05-02T12:34:33;19.00;99.90
22680;DHT22;11507;44.858;10.374;2023-05-02T12:36:59;19.10;99.90
22680;DHT22;11507;44.858;10.374;2023-05-02T12:42:07;19.40;99.90
22680;DHT22;11507;44.858;10.374;2023-05-02T12:44:44;19.40;99.90
22680;DHT22;11507;44.858;10.374;2023-05-02T12:47:12;19.30;99.90
22680;DHT22;11507;44.858;10.374;2023-05-02T12:49:47;19.10;99.90
22680;DHT22;11507;44.858;10.374;2023-05-02T12:52:14;18.90;99.90
22680;DHT22;11507;44.858;10.374;2023-05-02T12:54:39;18.70;99.90
22680;DHT22;11507;44.858;10.374;2023-05-02T12:57:05;18.60;99.90
22680;DHT22;11507;44.858;10.374;2023-05-02T12:59:33;18.60;99.90
22680;DHT22;11507;44.858;10.374;2023-05-02T13:01:59;18.60;99.90
22680;DHT22;11507;44.858;10.374;2023-05-02T13:04:37;18.60;99.90
22680;DHT22;11507;44.858;10.374;2023-05-02T13:07:04;18.60;99.90
22680;DHT22;11507;44.858;10.374;2023-05-02T13:12:00;18.50;99.90
22680;DHT22;11507;44.858;10.374;2023-05-02T13:16:57;18.40;99.90
22680;DHT22;11507;44.858;10.374;2023-05-02T13:19:23;18.30;99.90
22680;DHT22;11507;44.858;10.374;2023-05-02T13:21:50;18.30;99.90
22680;DHT22;11507;44.858;10.374;2023-05-02T13:24:16;18.20;99.90
22680;DHT22;11507;44.858;10.374;2023-05-02T13:26:42;18.30;99.90
22680;DHT22;11507;44.858;10.374;2023-05-02T13:29:10;18.40;99.90
22680;DHT22;11507;44.858;10.374;2023-05-02T13:31:37;18.40;99.90
22680;DHT22;11507;44.858;10.374;2023-05-02T13:34:03;18.20;99.90
22680;DHT22;11507;44.858;10.374;2023-05-02T13:36:29;18.20;99.90
22680;DHT22;11507;44.858;10.374;2023-05-02T13:38:56;18.10;99.90
22680;DHT22;11507;44.858;10.374;2023-05-02T13:41:22;18.10;99.90
22680;DHT22;11507;44.858;10.374;2023-05-02T13:43:53;18.10;99.90
22680;DHT22;11507;44.858;10.374;2023-05-02T13:46:20;18.00;99.90
22680;DHT22;11507;44.858;10.374;2023-05-02T13:48:46;17.90;99.90
22680;DHT22;11507;44.858;10.374;2023-05-02T13:51:12;17.90;99.90
22680;DHT22;11507;44.858;10.374;2023-05-02T13:53:38;17.80;99.90
22680;DHT22;11507;44.858;10.374;2023-05-02T13:56:03;17.80;99.90
22680;DHT22;11507;44.858;10.374;2023-05-02T13:58:30;17.70;99.90
22680;DHT22;11507;44.858;10.374;2023-05-02T14:00:56;17.70;99.90
22680;DHT22;11507;44.858;10.374;2023-05-02T14:03:22;17.60;99.90
22680;DHT22;11507;44.858;10.374;2023-05-02T14:05:48;17.60;99.90
22680;DHT22;11507;44.858;10.374;2023-05-02T14:08:14;17.50;99.90
22680;DHT22;11507;44.858;10.374;2023-05-02T14:10:42;17.50;99.90
22680;DHT22;11507;44.858;10.374;2023-05-02T14:13:08;17.40;99.90
22680;DHT22;11507;44.858;10.374;2023-05-02T14:15:34;17.50;99.90
22680;DHT22;11507;44.858;10.374;2023-05-02T14:18:01;17.40;99.90
22680;DHT22;11507;44.858;10.374;2023-05-02T14:20:28;17.40;99.90
22680;DHT22;11507;44.858;10.374;2023-05-02T14:22:54;17.40;99.90
22680;DHT22;11507;44.858;10.374;2023-05-02T14:25:20;17.20;99.90
22680;DHT22;11507;44.858;10.374;2023-05-02T14:27:45;17.10;99.90
22680;DHT22;11507;44.858;10.374;2023-05-02T14:30:11;16.90;99.90
22680;DHT22;11507;44.858;10.374;2023-05-02T14:32:37;16.90;99.90
22680;DHT22;11507;44.858;10.374;2023-05-02T14:35:03;17.00;99.90
22680;DHT22;11507;44.858;10.374;2023-05-02T14:37:29;17.10;99.90
22680;DHT22;11507;44.858;10.374;2023-05-02T14:39:55;17.10;99.90
22680;DHT22;11507;44.858;10.374;2023-05-02T14:42:24;17.10;99.90
22680;DHT22;11507;44.858;10.374;2023-05-02T14:44:50;17.20;99.90
22680;DHT22;11507;44.858;10.374;2023-05-02T14:47:16;17.10;99.90
22680;DHT22;11507;44.858;10.374;2023-05-02T14:49:42;17.10;99.90
22680;DHT22;11507;44.858;10.374;2023-05-02T14:52:08;17.00;99.90
22680;DHT22;11507;44.858;10.374;2023-05-02T14:54:35;17.00;99.90
22680;DHT22;11507;44.858;10.374;2023-05-02T14:57:02;17.00;99.90
22680;DHT22;11507;44.858;10.374;2023-05-02T14:59:28;17.00;99.90
22680;DHT22;11507;44.858;10.374;2023-05-02T15:01:54;17.10;99.90
22680;DHT22;11507;44.858;10.374;2023-05-02T15:04:20;17.00;99.90
22680;DHT22;11507;44.858;10.374;2023-05-02T15:06:46;17.10;99.90
22680;DHT22;11507;44.858;10.374;2023-05-02T15:09:13;17.10;99.90
22680;DHT22;11507;44.858;10.374;2023-05-02T15:11:40;17.20;99.90
22680;DHT22;11507;44.858;10.374;2023-05-02T15:14:06;17.30;99.90
22680;DHT22;11507;44.858;10.374;2023-05-02T15:16:32;17.40;99.90
22680;DHT22;11507;44.858;10.374;2023-05-02T15:18:58;17.40;99.90
22680;DHT22;11507;44.858;10.374;2023-05-02T15:21:24;17.40;99.90
22680;DHT22;11507;44.858;10.374;2023-05-02T15:23:50;17.30;99.90
22680;DHT22;11507;44.858;10.374;2023-05-02T15:26:17;17.30;99.90
22680;DHT22;11507;44.858;10.374;2023-05-02T15:28:43;17.30;99.90
22680;DHT22;11507;44.858;10.374;2023-05-02T15:31:09;17.40;99.90
22680;DHT22;11507;44.858;10.374;2023-05-02T15:33:34;17.50;99.90
22680;DHT22;11507;44.858;10.374;2023-05-02T15:36:03;17.50;99.90
22680;DHT22;11507;44.858;10.374;2023-05-02T15:38:29;17.50;99.90
22680;DHT22;11507;44.858;10.374;2023-05-02T15:40:56;17.50;99.90
22680;DHT22;11507;44.858;10.374;2023-05-02T15:43:23;17.50;99.90
22680;DHT22;11507;44.858;10.374;2023-05-02T15:45:49;17.50;99.90
22680;DHT22;11507;44.858;10.374;2023-05-02T15:48:15;17.60;99.90
22680;DHT22;11507;44.858;10.374;2023-05-02T15:50:41;17.50;99.90
22680;DHT22;11507;44.858;10.374;2023-05-02T15:53:06;17.50;99.90
22680;DHT22;11507;44.858;10.374;2023-05-02T15:55:32;17.60;99.90
22680;DHT22;11507;44.858;10.374;2023-05-02T15:57:59;17.60;99.90
22680;DHT22;11507;44.858;10.374;2023-05-02T16:00:25;17.60;99.90
22680;DHT22;11507;44.858;10.374;2023-05-02T16:02:53;17.60;99.90
22680;DHT22;11507;44.858;10.374;2023-05-02T16:05:20;17.60;99.90
22680;DHT22;11507;44.858;10.374;2023-05-02T16:07:45;17.50;99.90
22680;DHT22;11507;44.858;10.374;2023-05-02T16:10:11;17.50;99.90
22680;DHT22;11507;44.858;10.374;2023-05-02T16:12:37;17.50;99.90
22680;DHT22;11507;44.858;10.374;2023-05-02T16:15:03;17.40;99.90
22680;DHT22;11507;44.858;10.374;2023-05-02T16:17:29;17.50;99.90
22680;DHT22;11507;44.858;10.374;2023-05-02T16:19:55;17.50;99.90
22680;DHT22;11507;44.858;10.374;2023-05-02T16:22:23;17.50;99.90
22680;DHT22;11507;44.858;10.374;2023-05-02T16:24:50;17.50;99.90
22680;DHT22;11507;44.858;10.374;2023-05-02T16:27:16;17.50;99.90
22680;DHT22;11507;44.858;10.374;2023-05-02T16:29:42;17.50;99.90